createdAt,value
2017-09-14T00:01:01.216Z,999.118
2017-09-14T00:06:51.170Z,999.145
2017-09-14T00:09:46.289Z,999.096
2017-09-14T00:12:41.201Z,999.053
2017-09-14T00:15:36.135Z,999.095
2017-09-14T00:18:31.151Z,999.080
2017-09-14T00:21:26.184Z,999.120
2017-09-14T00:24:21.170Z,999.064
2017-09-14T00:27:16.145Z,999.069
2017-09-14T00:30:11.197Z,999.035
2017-09-14T00:33:06.170Z,999.076
2017-09-14T00:36:01.177Z,999.076
2017-09-14T00:38:56.205Z,998.995
2017-09-14T00:41:51.222Z,999.019
2017-09-14T00:44:46.160Z,999.034
2017-09-14T00:47:41.129Z,998.986
2017-09-14T00:50:36.107Z,998.952
2017-09-14T00:53:31.169Z,998.885
2017-09-14T00:56:26.135Z,998.850
2017-09-14T00:59:21.110Z,998.758
2017-09-14T01:02:16.169Z,998.723
2017-09-14T01:05:11.177Z,998.714
2017-09-14T01:08:06.200Z,998.754
2017-09-14T01:11:01.154Z,998.803
2017-09-14T01:13:56.115Z,998.819
2017-09-14T01:16:51.108Z,998.850
2017-09-14T01:19:46.075Z,998.822
2017-09-14T01:22:41.018Z,998.852
2017-09-14T01:25:36.037Z,998.841
2017-09-14T01:28:31.027Z,998.826
2017-09-14T01:31:25.924Z,998.824
2017-09-14T01:34:20.890Z,998.857
2017-09-14T01:37:15.851Z,998.853
2017-09-14T01:40:10.782Z,998.854
2017-09-14T01:43:05.662Z,998.798
2017-09-14T01:46:00.665Z,998.806
2017-09-14T01:48:55.603Z,998.769
2017-09-14T01:51:50.563Z,998.751
2017-09-14T01:54:45.539Z,998.743
2017-09-14T01:57:40.428Z,998.800
2017-09-14T02:00:35.341Z,998.783
2017-09-14T02:03:30.367Z,998.776
2017-09-14T02:06:25.373Z,998.750
2017-09-14T02:09:20.377Z,998.763
2017-09-14T02:12:15.304Z,998.712
2017-09-14T02:15:10.214Z,998.705
2017-09-14T02:18:05.130Z,998.671
2017-09-14T02:21:00.013Z,998.667
2017-09-14T02:23:55.033Z,998.715
2017-09-14T02:26:50.043Z,998.800
2017-09-14T02:29:44.975Z,998.796
2017-09-14T02:32:39.950Z,998.784
2017-09-14T02:35:34.880Z,998.738
2017-09-14T02:38:29.855Z,998.772
2017-09-14T02:41:24.873Z,998.775
2017-09-14T02:44:19.975Z,998.664
2017-09-14T02:47:14.991Z,998.557
2017-09-14T02:50:09.995Z,998.437
2017-09-14T02:53:05.039Z,998.388
2017-09-14T02:56:00.023Z,998.338
2017-09-14T02:58:54.980Z,998.268
2017-09-14T03:01:49.930Z,998.241
2017-09-14T03:04:44.903Z,998.216
2017-09-14T03:07:39.932Z,998.231
2017-09-14T03:10:34.927Z,998.179
2017-09-14T03:13:29.958Z,998.220
2017-09-14T03:16:24.991Z,998.130
2017-09-14T03:19:20.033Z,998.192
2017-09-14T03:22:14.840Z,998.141
2017-09-14T03:25:09.812Z,998.077
2017-09-14T03:28:04.764Z,997.969
2017-09-14T03:30:59.693Z,998.002
2017-09-14T03:33:54.580Z,998.040
2017-09-14T03:36:49.565Z,998.107
2017-09-14T03:39:44.447Z,998.090
2017-09-14T03:42:39.292Z,998.053
2017-09-14T03:45:34.246Z,998.022
2017-09-14T03:48:29.164Z,997.950
2017-09-14T03:51:24.115Z,998.077
2017-09-14T03:54:18.979Z,998.160
2017-09-14T03:57:14.035Z,998.230
2017-09-14T04:00:09.040Z,998.210
2017-09-14T04:03:04.049Z,998.367
2017-09-14T04:05:58.936Z,998.381
2017-09-14T04:08:53.805Z,998.448
2017-09-14T04:11:48.683Z,998.539
2017-09-14T04:14:43.614Z,998.596
2017-09-14T04:17:39.053Z,998.665
2017-09-14T04:20:34.046Z,998.613
2017-09-14T04:23:40.282Z,998.696
2017-09-14T04:26:30.389Z,998.652
2017-09-14T04:32:14.805Z,998.330
2017-09-14T04:34:59.131Z,998.453
2017-09-14T04:37:53.464Z,998.694
2017-09-14T04:40:48.184Z,998.670
2017-09-14T04:43:43.016Z,998.421
2017-09-14T04:46:37.944Z,997.867
2017-09-14T04:49:32.859Z,998.049
2017-09-14T04:55:05.958Z,998.080
2017-09-14T04:57:50.509Z,998.058
2017-09-14T05:00:44.774Z,997.948
2017-09-14T05:03:39.740Z,997.793
2017-09-14T05:06:34.528Z,998.047
2017-09-14T05:09:29.365Z,998.173
2017-09-14T05:19:56.310Z,998.747
2017-09-14T05:22:40.166Z,998.499
2017-09-14T05:25:34.186Z,998.447
2017-09-14T05:28:28.706Z,998.293
2017-09-14T05:31:23.523Z,998.320
2017-09-14T05:39:45.943Z,998.459
2017-09-14T05:45:24.051Z,998.644
2017-09-14T05:48:18.698Z,998.659
2017-09-14T05:51:13.857Z,998.587
2017-09-14T05:56:46.791Z,998.554
2017-09-14T06:00:39.115Z,998.567
2017-09-14T06:03:24.180Z,998.627
2017-09-14T06:06:18.656Z,998.489
2017-09-14T06:09:13.438Z,998.584
2017-09-14T06:12:08.333Z,998.589
2017-09-14T06:15:03.307Z,998.713
2017-09-14T06:22:52.119Z,999.153
2017-09-14T06:25:36.143Z,998.915
2017-09-14T06:28:30.261Z,999.029
2017-09-14T06:31:24.898Z,998.821
2017-09-14T06:34:19.696Z,998.878
2017-09-14T06:37:37.136Z,999.001
2017-09-14T06:40:25.257Z,998.971
2017-09-14T06:43:20.130Z,998.841
2017-09-14T06:51:02.864Z,998.887
2017-09-14T06:56:48.751Z,999.026
2017-09-14T07:00:28.621Z,998.930
2017-09-14T07:09:40.755Z,998.868
2017-09-14T07:12:35.600Z,998.629
2017-09-14T07:16:49.588Z,999.007
2017-09-14T07:19:34.854Z,999.156
2017-09-14T07:22:29.437Z,999.266
2017-09-14T07:25:24.271Z,998.877
2017-09-14T07:28:19.220Z,998.645
2017-09-14T07:31:14.200Z,998.770
2017-09-14T07:34:09.197Z,998.872
2017-09-14T07:37:04.087Z,999.256
2017-09-14T07:39:58.956Z,999.645
2017-09-14T07:43:16.706Z,999.606
2017-09-14T07:48:59.662Z,999.590
2017-09-14T07:51:54.579Z,999.422
2017-09-14T07:54:49.706Z,999.464
2017-09-14T07:57:44.614Z,999.583
2017-09-14T08:00:39.643Z,999.436
2017-09-14T08:03:34.645Z,999.493
2017-09-14T08:06:29.746Z,999.512
2017-09-14T08:09:24.764Z,999.601
2017-09-14T08:12:19.708Z,999.657
2017-09-14T08:15:14.728Z,999.635
2017-09-14T08:18:09.801Z,999.618
2017-09-14T08:21:04.834Z,999.743
2017-09-14T08:23:59.878Z,999.855
2017-09-14T08:26:54.847Z,999.788
2017-09-14T08:29:49.739Z,999.775
2017-09-14T08:32:44.782Z,999.769
2017-09-14T08:35:39.779Z,999.796
2017-09-14T08:38:34.723Z,999.972
2017-09-14T08:41:29.723Z,999.915
2017-09-14T08:44:24.746Z,999.696
2017-09-14T08:47:19.662Z,999.656
2017-09-14T08:53:09.729Z,999.668
2017-09-14T08:56:04.702Z,999.469
2017-09-14T08:58:59.831Z,999.548
2017-09-14T09:01:54.793Z,999.738
2017-09-14T09:04:49.861Z,999.892
2017-09-14T09:07:44.912Z,999.906
2017-09-14T09:10:40.108Z,999.840
2017-09-14T09:13:35.148Z,999.797
2017-09-14T09:16:30.103Z,999.793
2017-09-14T09:19:25.128Z,999.901
2017-09-14T09:22:20.177Z,999.839
2017-09-14T09:25:15.219Z,999.789
2017-09-14T09:28:10.216Z,999.885
2017-09-14T09:31:05.231Z,999.799
2017-09-14T09:36:55.330Z,1000.046
2017-09-14T09:39:50.372Z,1000.078
2017-09-14T09:42:45.429Z,1000.145
2017-09-14T09:45:40.510Z,1000.138
2017-09-14T09:48:35.639Z,1000.146
2017-09-14T09:51:30.638Z,1000.216
2017-09-14T09:54:25.670Z,1000.369
2017-09-14T09:57:20.811Z,1000.342
2017-09-14T10:00:15.863Z,1000.152
2017-09-14T10:03:10.939Z,1000.226
2017-09-14T10:06:05.830Z,1000.232
2017-09-14T10:09:00.884Z,1000.212
2017-09-14T10:11:55.933Z,1000.148
2017-09-14T10:14:50.917Z,1000.085
2017-09-14T10:17:45.939Z,1000.204
2017-09-14T10:20:40.963Z,1000.228
2017-09-14T10:23:36.123Z,1000.208
2017-09-14T10:26:31.091Z,1000.016
2017-09-14T10:29:26.093Z,999.924
2017-09-14T10:32:21.175Z,1000.118
2017-09-14T10:35:16.273Z,1000.221
2017-09-14T10:38:11.278Z,1000.360
2017-09-14T10:41:06.300Z,1000.390
2017-09-14T10:44:01.461Z,1000.075
2017-09-14T10:46:56.483Z,999.844
2017-09-14T10:49:51.473Z,999.784
2017-09-14T10:52:46.564Z,999.783
2017-09-14T10:55:41.657Z,999.787
2017-09-14T10:58:36.699Z,999.804
2017-09-14T11:01:31.814Z,1000.017
2017-09-14T11:04:26.900Z,1000.084
2017-09-14T11:07:21.983Z,1000.317
2017-09-14T11:10:17.008Z,1000.404
2017-09-14T11:13:12.063Z,1000.166
2017-09-14T11:16:07.124Z,999.928
2017-09-14T11:19:02.172Z,1000.008
2017-09-14T11:21:57.243Z,1000.147
2017-09-14T11:24:52.340Z,1000.295
2017-09-14T11:27:47.385Z,1000.250
2017-09-14T11:30:42.536Z,1000.210
2017-09-14T11:33:37.605Z,1000.362
2017-09-14T11:36:32.758Z,1000.382
2017-09-14T11:42:22.970Z,1000.507
2017-09-14T11:45:18.032Z,1000.287
2017-09-14T11:48:13.086Z,1000.177
2017-09-14T11:51:08.138Z,1000.559
2017-09-14T11:54:03.123Z,1000.418
2017-09-14T11:56:57.995Z,1000.416
2017-09-14T11:59:53.050Z,1000.251
2017-09-14T12:05:43.148Z,1000.222
2017-09-14T12:08:38.038Z,1000.404
2017-09-14T12:11:33.009Z,1000.438
2017-09-14T12:14:28.090Z,1000.506
2017-09-14T12:17:23.031Z,1000.395
2017-09-14T12:20:17.995Z,1000.283
2017-09-14T12:23:13.046Z,999.919
2017-09-14T12:26:08.059Z,999.963
2017-09-14T12:29:03.228Z,1000.043
2017-09-14T12:31:58.250Z,1000.158
2017-09-14T12:34:53.302Z,1000.186
2017-09-14T12:37:48.323Z,1000.207
2017-09-14T12:40:43.443Z,1000.261
2017-09-14T12:43:38.546Z,1000.505
2017-09-14T13:12:55.657Z,1000.172
2017-09-14T13:16:24.623Z,1000.134
2017-09-14T13:20:52.162Z,1000.229
2017-09-14T13:23:36.963Z,1000.194
2017-09-14T13:26:31.440Z,1000.207
2017-09-14T13:29:26.227Z,1000.201
2017-09-14T13:32:21.162Z,1000.185
2017-09-14T13:35:16.055Z,1000.155
2017-09-14T13:38:11.092Z,1000.164
2017-09-14T13:41:06.059Z,1000.135
2017-09-14T13:46:16.664Z,1000.189
2017-09-14T13:49:01.301Z,1000.206
2017-09-14T13:51:55.756Z,1000.163
2017-09-14T13:54:50.714Z,1000.318
2017-09-14T13:57:45.724Z,1000.303
2017-09-14T14:00:40.739Z,1000.317
2017-09-14T14:03:35.823Z,1000.367
2017-09-14T14:06:31.019Z,1000.389
2017-09-14T14:12:21.054Z,1000.444
2017-09-14T14:15:16.200Z,1000.437
2017-09-14T14:18:11.261Z,1000.544
2017-09-14T14:21:06.346Z,1000.510
2017-09-14T14:24:01.475Z,1000.488
2017-09-14T14:26:56.505Z,1000.625
2017-09-14T14:29:51.528Z,1000.668
2017-09-14T14:35:41.731Z,1000.570
2017-09-14T14:38:36.792Z,1000.533
2017-09-14T14:41:31.814Z,1000.506
2017-09-14T14:44:26.878Z,1000.620
2017-09-14T14:47:21.934Z,1000.705
2017-09-14T14:50:16.952Z,1000.728
2017-09-14T14:53:11.855Z,1000.860
2017-09-14T14:59:02.090Z,1000.805
2017-09-14T15:01:57.060Z,1000.880
2017-09-14T15:04:52.055Z,1000.856
2017-09-14T15:07:47.073Z,1001.016
2017-09-14T15:10:42.131Z,1001.469
2017-09-14T15:13:37.151Z,1001.717
2017-09-14T15:16:32.235Z,1001.526
2017-09-14T15:19:27.306Z,1001.226
2017-09-14T15:22:22.313Z,1001.280
2017-09-14T15:25:17.498Z,1001.118
2017-09-14T15:28:12.390Z,1001.033
2017-09-14T15:31:07.426Z,1000.973
2017-09-14T15:34:02.349Z,1000.976
2017-09-14T15:41:40.514Z,1001.174
2017-09-14T15:45:10.568Z,1001.206
2017-09-14T15:49:38.263Z,1001.187
2017-09-14T15:52:23.058Z,1001.248
2017-09-14T16:00:22.666Z,1001.257
2017-09-14T16:03:06.518Z,1001.273
2017-09-14T16:06:00.567Z,1001.258
2017-09-14T16:08:55.184Z,1001.289
2017-09-14T16:11:50.024Z,1001.327
2017-09-14T16:14:45.175Z,1001.428
2017-09-14T16:17:40.107Z,1001.436
2017-09-14T16:20:46.297Z,1001.445
2017-09-14T16:32:27.500Z,1001.417
2017-09-14T16:35:56.470Z,1001.447
2017-09-14T16:38:42.110Z,1001.438
2017-09-14T16:41:36.539Z,1001.469
2017-09-14T16:52:15.055Z,1001.589
2017-09-14T16:54:58.866Z,1001.584
2017-09-14T16:57:52.842Z,1001.571
2017-09-14T17:00:47.413Z,1001.598
2017-09-14T17:06:20.510Z,1001.710
2017-09-14T17:14:10.029Z,1001.733
2017-09-14T17:16:53.925Z,1001.756
2017-09-14T17:30:14.558Z,1001.835
2017-09-14T17:34:51.310Z,1001.905
2017-09-14T17:37:35.624Z,1001.938
2017-09-14T17:40:29.809Z,1001.982
2017-09-14T17:43:35.789Z,1002.028
2017-09-14T17:54:43.068Z,1002.289
2017-09-14T17:57:26.781Z,1002.254
2017-09-14T18:00:20.786Z,1002.279
2017-09-14T18:03:15.416Z,1002.347
2017-09-14T18:16:31.665Z,1002.460
2017-09-14T18:19:15.217Z,1002.498
2017-09-14T18:22:09.074Z,1002.510
2017-09-14T18:25:03.569Z,1002.521
2017-09-14T18:34:45.206Z,1002.628
2017-09-14T18:37:29.011Z,1002.664
2017-09-14T18:40:22.942Z,1002.725
2017-09-14T18:43:17.426Z,1002.724
2017-09-14T18:59:17.269Z,1002.893
2017-09-14T19:02:11.224Z,1002.871
2017-09-14T19:05:05.797Z,1002.876
2017-09-14T19:08:34.434Z,1002.945
2017-09-14T19:11:21.334Z,1002.943
2017-09-14T19:17:58.129Z,1003.024
2017-09-14T19:32:22.069Z,1002.964
2017-09-14T19:35:05.638Z,1003.012
2017-09-14T19:37:59.512Z,1003.044
2017-09-14T19:49:33.777Z,1003.043
2017-09-14T19:52:17.505Z,1003.073
2017-09-14T19:55:11.389Z,1003.087
2017-09-14T19:58:05.903Z,1003.094
2017-09-14T20:04:12.749Z,1003.096
2017-09-14T20:07:42.126Z,1003.090
2017-09-14T20:15:10.339Z,1003.152
2017-09-14T20:17:54.346Z,1003.152
2017-09-14T20:23:42.829Z,1003.199
2017-09-14T20:36:01.128Z,1003.320
2017-09-14T20:38:44.976Z,1003.323
2017-09-14T20:41:38.969Z,1003.339
2017-09-14T20:44:33.405Z,1003.347
2017-09-14T20:47:28.249Z,1003.387
2017-09-14T20:52:04.796Z,1003.350
2017-09-14T20:54:49.473Z,1003.383
2017-09-14T20:57:43.910Z,1003.415
2017-09-14T21:00:49.937Z,1003.461
2017-09-14T21:04:25.018Z,1003.488
2017-09-14T21:07:33.773Z,1003.454
2017-09-14T21:10:21.659Z,1003.443
2017-09-14T21:13:27.668Z,1003.473
2017-09-14T21:18:33.882Z,1003.415
2017-09-14T21:23:56.013Z,1003.432
2017-09-14T21:26:40.316Z,1003.345
2017-09-14T21:29:34.434Z,1003.328
2017-09-14T21:32:29.051Z,1003.331
2017-09-14T21:35:24.021Z,1003.321
2017-09-14T21:38:18.817Z,1003.318
2017-09-14T21:44:08.555Z,1003.372
2017-09-14T21:48:56.460Z,1003.444
2017-09-14T21:51:41.173Z,1003.476
2017-09-14T21:54:35.644Z,1003.464
2017-09-14T22:03:31.873Z,1003.462
2017-09-14T22:06:15.643Z,1003.437
2017-09-14T22:09:09.583Z,1003.436
2017-09-14T22:12:04.159Z,1003.436
2017-09-14T22:14:58.939Z,1003.456
2017-09-14T22:17:53.683Z,1003.510
2017-09-14T22:22:52.806Z,1003.583
2017-09-14T22:25:37.363Z,1003.678
2017-09-14T22:39:10.056Z,1003.846
2017-09-14T22:42:04.012Z,1003.903
2017-09-14T22:45:55.005Z,1003.958
2017-09-14T23:16:27.175Z,1004.198
2017-09-14T23:28:34.808Z,1004.319
2017-09-14T23:42:13.740Z,1004.521
2017-09-14T23:47:13.010Z,1004.605
